sensor_id;sensor_type;location;lat;lon;timestamp;P1;durP1;ratioP1;P2;durP2;ratioP2
36547;SDS011;22551;52.206;4.856;2024-01-11T00:18:20;15.48;;;6.30;;
36547;SDS011;22551;52.206;4.856;2024-01-11T00:23:22;21.13;;;5.80;;
36547;SDS011;22551;52.206;4.856;2024-01-11T00:28:24;13.45;;;4.93;;
36547;SDS011;22551;52.206;4.856;2024-01-11T00:33:27;16.77;;;5.47;;
36547;SDS011;22551;52.206;4.856;2024-01-11T00:38:30;16.63;;;6.80;;
36547;SDS011;22551;52.206;4.856;2024-01-11T00:43:32;19.88;;;5.72;;
36547;SDS011;22551;52.206;4.856;2024-01-11T00:48:36;16.27;;;6.32;;
36547;SDS011;22551;52.206;4.856;2024-01-11T00:53:38;17.90;;;5.72;;
36547;SDS011;22551;52.206;4.856;2024-01-11T00:58:40;15.68;;;6.05;;
36547;SDS011;22551;52.206;4.856;2024-01-11T05:38:29;31.17;;;12.52;;
36547;SDS011;22551;52.206;4.856;2024-01-11T05:43:31;35.28;;;13.43;;
36547;SDS011;22551;52.206;4.856;2024-01-11T07:03:02;36.58;;;13.93;;
36547;SDS011;22551;52.206;4.856;2024-01-11T07:08:05;37.28;;;13.68;;
36547;SDS011;22551;52.206;4.856;2024-01-11T07:13:08;38.75;;;14.05;;
36547;SDS011;22551;52.206;4.856;2024-01-11T07:18:22;33.80;;;13.30;;
36547;SDS011;22551;52.206;4.856;2024-01-11T07:23:31;34.63;;;13.25;;
36547;SDS011;22551;52.206;4.856;2024-01-11T07:28:33;31.73;;;12.60;;
36547;SDS011;22551;52.206;4.856;2024-01-11T07:33:38;32.80;;;12.35;;
36547;SDS011;22551;52.206;4.856;2024-01-11T08:04:34;32.03;;;12.70;;
36547;SDS011;22551;52.206;4.856;2024-01-11T08:09:38;33.33;;;12.95;;
36547;SDS011;22551;52.206;4.856;2024-01-11T08:45:48;33.83;;;14.90;;
36547;SDS011;22551;52.206;4.856;2024-01-11T08:50:52;41.90;;;15.10;;
36547;SDS011;22551;52.206;4.856;2024-01-11T08:55:55;43.33;;;15.82;;
36547;SDS011;22551;52.206;4.856;2024-01-11T09:00:58;36.83;;;15.55;;
36547;SDS011;22551;52.206;4.856;2024-01-11T09:06:00;38.67;;;14.77;;
36547;SDS011;22551;52.206;4.856;2024-01-11T09:11:06;39.30;;;15.40;;
36547;SDS011;22551;52.206;4.856;2024-01-11T09:16:16;40.03;;;15.52;;
36547;SDS011;22551;52.206;4.856;2024-01-11T09:21:19;33.83;;;15.55;;
36547;SDS011;22551;52.206;4.856;2024-01-11T09:26:23;44.47;;;16.45;;
36547;SDS011;22551;52.206;4.856;2024-01-11T09:31:27;35.03;;;15.77;;
36547;SDS011;22551;52.206;4.856;2024-01-11T09:36:31;40.00;;;15.88;;
36547;SDS011;22551;52.206;4.856;2024-01-11T09:41:34;38.10;;;16.25;;
36547;SDS011;22551;52.206;4.856;2024-01-11T09:46:40;37.90;;;15.97;;
36547;SDS011;22551;52.206;4.856;2024-01-11T09:51:43;43.03;;;17.15;;
36547;SDS011;22551;52.206;4.856;2024-01-11T09:56:47;37.63;;;14.77;;
36547;SDS011;22551;52.206;4.856;2024-01-11T10:01:53;39.58;;;14.93;;
36547;SDS011;22551;52.206;4.856;2024-01-11T10:06:56;33.47;;;13.68;;
36547;SDS011;22551;52.206;4.856;2024-01-11T10:11:59;31.73;;;13.23;;
36547;SDS011;22551;52.206;4.856;2024-01-11T10:17:03;36.65;;;14.65;;
36547;SDS011;22551;52.206;4.856;2024-01-11T10:22:06;31.33;;;13.30;;
36547;SDS011;22551;52.206;4.856;2024-01-11T10:27:12;34.45;;;12.95;;
36547;SDS011;22551;52.206;4.856;2024-01-11T10:32:16;31.85;;;13.10;;
36547;SDS011;22551;52.206;4.856;2024-01-11T10:37:18;33.78;;;12.63;;
36547;SDS011;22551;52.206;4.856;2024-01-11T10:42:23;29.45;;;12.38;;
36547;SDS011;22551;52.206;4.856;2024-01-11T10:47:30;34.15;;;12.70;;
36547;SDS011;22551;52.206;4.856;2024-01-11T10:52:34;34.35;;;13.82;;
36547;SDS011;22551;52.206;4.856;2024-01-11T10:57:44;33.20;;;13.65;;
36547;SDS011;22551;52.206;4.856;2024-01-11T11:02:50;34.95;;;14.70;;
36547;SDS011;22551;52.206;4.856;2024-01-11T11:07:56;35.25;;;14.88;;
36547;SDS011;22551;52.206;4.856;2024-01-11T11:13:01;31.10;;;14.40;;
36547;SDS011;22551;52.206;4.856;2024-01-11T11:18:06;37.33;;;15.73;;
36547;SDS011;22551;52.206;4.856;2024-01-11T11:23:08;28.10;;;12.75;;
36547;SDS011;22551;52.206;4.856;2024-01-11T11:28:12;27.23;;;13.15;;
36547;SDS011;22551;52.206;4.856;2024-01-11T11:33:18;27.80;;;12.23;;
36547;SDS011;22551;52.206;4.856;2024-01-11T11:38:22;24.17;;;11.73;;
36547;SDS011;22551;52.206;4.856;2024-01-11T11:43:28;28.48;;;11.88;;
36547;SDS011;22551;52.206;4.856;2024-01-11T11:48:49;29.40;;;11.93;;
36547;SDS011;22551;52.206;4.856;2024-01-11T11:53:56;24.38;;;11.20;;
36547;SDS011;22551;52.206;4.856;2024-01-11T11:58:59;23.83;;;11.13;;
36547;SDS011;22551;52.206;4.856;2024-01-11T12:04:05;22.83;;;10.13;;
36547;SDS011;22551;52.206;4.856;2024-01-11T12:09:10;24.42;;;11.25;;
36547;SDS011;22551;52.206;4.856;2024-01-11T12:14:12;22.45;;;10.65;;
36547;SDS011;22551;52.206;4.856;2024-01-11T12:19:16;24.50;;;9.50;;
36547;SDS011;22551;52.206;4.856;2024-01-11T12:24:18;18.63;;;8.80;;
36547;SDS011;22551;52.206;4.856;2024-01-11T12:29:22;23.67;;;10.20;;
36547;SDS011;22551;52.206;4.856;2024-01-11T12:34:25;21.77;;;10.15;;
36547;SDS011;22551;52.206;4.856;2024-01-11T12:39:28;20.02;;;9.68;;
36547;SDS011;22551;52.206;4.856;2024-01-11T12:44:30;18.58;;;8.43;;
36547;SDS011;22551;52.206;4.856;2024-01-11T12:49:34;17.17;;;8.82;;
36547;SDS011;22551;52.206;4.856;2024-01-11T12:54:37;17.67;;;8.50;;
36547;SDS011;22551;52.206;4.856;2024-01-11T12:59:39;21.02;;;9.82;;
36547;SDS011;22551;52.206;4.856;2024-01-11T13:04:43;19.73;;;8.82;;
36547;SDS011;22551;52.206;4.856;2024-01-11T13:09:46;23.42;;;10.63;;
36547;SDS011;22551;52.206;4.856;2024-01-11T13:14:48;19.05;;;9.32;;
36547;SDS011;22551;52.206;4.856;2024-01-11T13:19:54;23.50;;;10.40;;
36547;SDS011;22551;52.206;4.856;2024-01-11T13:24:56;21.42;;;9.50;;
36547;SDS011;22551;52.206;4.856;2024-01-11T13:29:58;24.85;;;9.73;;
36547;SDS011;22551;52.206;4.856;2024-01-11T13:35:02;21.27;;;9.43;;
36547;SDS011;22551;52.206;4.856;2024-01-11T13:40:06;20.75;;;8.93;;
36547;SDS011;22551;52.206;4.856;2024-01-11T13:45:10;20.50;;;9.63;;
36547;SDS011;22551;52.206;4.856;2024-01-11T13:50:14;19.55;;;9.70;;
36547;SDS011;22551;52.206;4.856;2024-01-11T13:55:16;21.60;;;9.23;;
36547;SDS011;22551;52.206;4.856;2024-01-11T14:00:21;24.70;;;9.93;;
36547;SDS011;22551;52.206;4.856;2024-01-11T14:05:24;18.67;;;8.85;;
36547;SDS011;22551;52.206;4.856;2024-01-11T14:10:26;17.55;;;8.95;;
36547;SDS011;22551;52.206;4.856;2024-01-11T14:15:29;21.95;;;9.40;;
36547;SDS011;22551;52.206;4.856;2024-01-11T14:20:38;22.65;;;10.10;;
36547;SDS011;22551;52.206;4.856;2024-01-11T14:25:40;19.30;;;8.77;;
36547;SDS011;22551;52.206;4.856;2024-01-11T14:30:43;20.85;;;9.70;;
36547;SDS011;22551;52.206;4.856;2024-01-11T14:35:47;18.73;;;8.77;;
36547;SDS011;22551;52.206;4.856;2024-01-11T14:40:49;17.35;;;8.75;;
36547;SDS011;22551;52.206;4.856;2024-01-11T14:45:51;16.88;;;8.65;;
36547;SDS011;22551;52.206;4.856;2024-01-11T14:50:55;19.13;;;8.98;;
36547;SDS011;22551;52.206;4.856;2024-01-11T14:55:57;19.27;;;9.20;;
36547;SDS011;22551;52.206;4.856;2024-01-11T15:00:59;22.02;;;8.68;;
36547;SDS011;22551;52.206;4.856;2024-01-11T15:06:03;23.85;;;10.00;;
36547;SDS011;22551;52.206;4.856;2024-01-11T15:11:06;21.63;;;9.73;;
36547;SDS011;22551;52.206;4.856;2024-01-11T15:16:09;22.73;;;10.10;;
36547;SDS011;22551;52.206;4.856;2024-01-11T15:21:13;23.50;;;10.90;;
36547;SDS011;22551;52.206;4.856;2024-01-11T15:26:15;21.92;;;10.77;;
36547;SDS011;22551;52.206;4.856;2024-01-11T15:31:19;21.42;;;10.50;;
36547;SDS011;22551;52.206;4.856;2024-01-11T15:36:23;23.45;;;11.38;;
36547;SDS011;22551;52.206;4.856;2024-01-11T15:41:27;26.30;;;11.63;;
36547;SDS011;22551;52.206;4.856;2024-01-11T15:46:31;19.38;;;10.07;;
36547;SDS011;22551;52.206;4.856;2024-01-11T15:51:37;24.27;;;10.43;;
36547;SDS011;22551;52.206;4.856;2024-01-11T15:56:42;23.55;;;10.00;;
36547;SDS011;22551;52.206;4.856;2024-01-11T16:01:44;19.90;;;9.85;;
36547;SDS011;22551;52.206;4.856;2024-01-11T16:06:48;22.25;;;10.20;;
36547;SDS011;22551;52.206;4.856;2024-01-11T16:11:50;21.23;;;10.75;;
36547;SDS011;22551;52.206;4.856;2024-01-11T16:16:53;20.23;;;10.63;;
36547;SDS011;22551;52.206;4.856;2024-01-11T16:21:56;25.75;;;11.15;;
36547;SDS011;22551;52.206;4.856;2024-01-11T16:26:58;20.48;;;8.73;;
36547;SDS011;22551;52.206;4.856;2024-01-11T16:32:00;23.20;;;9.57;;
36547;SDS011;22551;52.206;4.856;2024-01-11T16:37:04;18.98;;;9.48;;
36547;SDS011;22551;52.206;4.856;2024-01-11T16:42:07;23.67;;;10.55;;
36547;SDS011;22551;52.206;4.856;2024-01-11T16:47:10;19.92;;;10.32;;
36547;SDS011;22551;52.206;4.856;2024-01-11T16:52:13;25.02;;;9.88;;
36547;SDS011;22551;52.206;4.856;2024-01-11T16:57:16;21.08;;;10.32;;
36547;SDS011;22551;52.206;4.856;2024-01-11T17:02:20;20.75;;;10.30;;
36547;SDS011;22551;52.206;4.856;2024-01-11T17:07:24;27.73;;;12.55;;
36547;SDS011;22551;52.206;4.856;2024-01-11T17:12:26;25.33;;;10.88;;
36547;SDS011;22551;52.206;4.856;2024-01-11T17:17:28;26.10;;;11.52;;
36547;SDS011;22551;52.206;4.856;2024-01-11T17:22:32;22.92;;;11.40;;
36547;SDS011;22551;52.206;4.856;2024-01-11T17:27:35;25.08;;;10.95;;
36547;SDS011;22551;52.206;4.856;2024-01-11T17:32:37;20.52;;;9.88;;
36547;SDS011;22551;52.206;4.856;2024-01-11T17:37:41;23.58;;;11.43;;
36547;SDS011;22551;52.206;4.856;2024-01-11T17:42:43;22.80;;;12.10;;
36547;SDS011;22551;52.206;4.856;2024-01-11T17:47:45;30.15;;;11.75;;
36547;SDS011;22551;52.206;4.856;2024-01-11T17:52:49;27.70;;;12.75;;
36547;SDS011;22551;52.206;4.856;2024-01-11T17:57:51;31.73;;;12.85;;
36547;SDS011;22551;52.206;4.856;2024-01-11T18:02:53;28.30;;;11.82;;
36547;SDS011;22551;52.206;4.856;2024-01-11T18:07:57;30.65;;;12.55;;
36547;SDS011;22551;52.206;4.856;2024-01-11T18:12:59;34.25;;;14.65;;
36547;SDS011;22551;52.206;4.856;2024-01-11T18:18:02;33.63;;;14.05;;
36547;SDS011;22551;52.206;4.856;2024-01-11T18:23:07;26.63;;;11.35;;
36547;SDS011;22551;52.206;4.856;2024-01-11T18:28:15;23.60;;;11.85;;
36547;SDS011;22551;52.206;4.856;2024-01-11T18:33:20;24.60;;;10.03;;
36547;SDS011;22551;52.206;4.856;2024-01-11T18:38:25;28.90;;;7.95;;
36547;SDS011;22551;52.206;4.856;2024-01-11T18:43:27;18.88;;;7.30;;
36547;SDS011;22551;52.206;4.856;2024-01-11T18:48:29;15.25;;;5.38;;
36547;SDS011;22551;52.206;4.856;2024-01-11T18:53:37;26.15;;;5.78;;
36547;SDS011;22551;52.206;4.856;2024-01-11T18:58:40;15.68;;;4.32;;
36547;SDS011;22551;52.206;4.856;2024-01-11T19:03:42;20.30;;;4.50;;
36547;SDS011;22551;52.206;4.856;2024-01-11T19:13:57;17.88;;;2.97;;
36547;SDS011;22551;52.206;4.856;2024-01-11T19:18:59;22.58;;;3.95;;
36547;SDS011;22551;52.206;4.856;2024-01-11T19:24:03;16.38;;;2.40;;
36547;SDS011;22551;52.206;4.856;2024-01-11T19:29:08;13.38;;;2.25;;
36547;SDS011;22551;52.206;4.856;2024-01-11T19:34:10;26.52;;;3.67;;
36547;SDS011;22551;52.206;4.856;2024-01-11T19:39:16;18.25;;;3.42;;
36547;SDS011;22551;52.206;4.856;2024-01-11T19:44:21;23.10;;;2.95;;
36547;SDS011;22551;52.206;4.856;2024-01-11T19:49:27;22.95;;;4.07;;
36547;SDS011;22551;52.206;4.856;2024-01-11T19:54:29;25.67;;;3.78;;
36547;SDS011;22551;52.206;4.856;2024-01-11T19:59:33;20.70;;;3.33;;
36547;SDS011;22551;52.206;4.856;2024-01-11T20:04:35;16.40;;;2.90;;
36547;SDS011;22551;52.206;4.856;2024-01-11T20:09:37;15.88;;;2.83;;
36547;SDS011;22551;52.206;4.856;2024-01-11T20:14:40;19.75;;;3.90;;
36547;SDS011;22551;52.206;4.856;2024-01-11T20:19:44;25.77;;;4.55;;
36547;SDS011;22551;52.206;4.856;2024-01-11T20:24:50;18.58;;;2.92;;
36547;SDS011;22551;52.206;4.856;2024-01-11T20:29:54;15.57;;;3.13;;
36547;SDS011;22551;52.206;4.856;2024-01-11T20:34:56;25.48;;;3.05;;
36547;SDS011;22551;52.206;4.856;2024-01-11T20:39:58;15.50;;;3.25;;
36547;SDS011;22551;52.206;4.856;2024-01-11T20:45:01;18.10;;;3.45;;
36547;SDS011;22551;52.206;4.856;2024-01-11T20:50:05;30.27;;;3.38;;
36547;SDS011;22551;52.206;4.856;2024-01-11T20:55:08;9.95;;;2.17;;
36547;SDS011;22551;52.206;4.856;2024-01-11T21:00:12;17.83;;;2.75;;
36547;SDS011;22551;52.206;4.856;2024-01-11T21:05:18;15.00;;;2.55;;
36547;SDS011;22551;52.206;4.856;2024-01-11T21:10:21;8.65;;;2.42;;
36547;SDS011;22551;52.206;4.856;2024-01-11T21:15:25;12.10;;;3.22;;
36547;SDS011;22551;52.206;4.856;2024-01-11T21:20:29;16.60;;;3.28;;
36547;SDS011;22551;52.206;4.856;2024-01-11T21:25:31;25.63;;;3.88;;
36547;SDS011;22551;52.206;4.856;2024-01-11T21:30:34;12.10;;;2.25;;
36547;SDS011;22551;52.206;4.856;2024-01-11T21:35:36;17.25;;;2.42;;
36547;SDS011;22551;52.206;4.856;2024-01-11T21:40:39;18.98;;;3.28;;
36547;SDS011;22551;52.206;4.856;2024-01-11T21:45:43;14.75;;;2.95;;
36547;SDS011;22551;52.206;4.856;2024-01-11T21:50:45;12.25;;;3.42;;
36547;SDS011;22551;52.206;4.856;2024-01-11T21:55:47;14.23;;;2.85;;
36547;SDS011;22551;52.206;4.856;2024-01-11T22:00:50;6.60;;;1.48;;
36547;SDS011;22551;52.206;4.856;2024-01-11T22:05:55;11.35;;;2.55;;
36547;SDS011;22551;52.206;4.856;2024-01-11T22:10:58;3.33;;;1.70;;
36547;SDS011;22551;52.206;4.856;2024-01-11T22:16:01;10.98;;;2.35;;
36547;SDS011;22551;52.206;4.856;2024-01-11T22:26:07;4.47;;;1.42;;
36547;SDS011;22551;52.206;4.856;2024-01-11T22:31:11;20.00;;;2.40;;
36547;SDS011;22551;52.206;4.856;2024-01-11T22:36:13;12.98;;;3.17;;
36547;SDS011;22551;52.206;4.856;2024-01-11T22:41:15;14.85;;;2.30;;
36547;SDS011;22551;52.206;4.856;2024-01-11T22:46:19;5.32;;;1.85;;
36547;SDS011;22551;52.206;4.856;2024-01-11T22:51:21;10.50;;;2.40;;
36547;SDS011;22551;52.206;4.856;2024-01-11T22:56:23;6.82;;;2.15;;
36547;SDS011;22551;52.206;4.856;2024-01-11T23:01:27;13.15;;;2.22;;
36547;SDS011;22551;52.206;4.856;2024-01-11T23:06:29;4.75;;;2.67;;
36547;SDS011;22551;52.206;4.856;2024-01-11T23:11:31;6.60;;;2.45;;
36547;SDS011;22551;52.206;4.856;2024-01-11T23:16:35;5.53;;;2.42;;
36547;SDS011;22551;52.206;4.856;2024-01-11T23:21:37;10.15;;;2.08;;
36547;SDS011;22551;52.206;4.856;2024-01-11T23:26:39;6.63;;;1.77;;
36547;SDS011;22551;52.206;4.856;2024-01-11T23:31:42;9.45;;;2.22;;
36547;SDS011;22551;52.206;4.856;2024-01-11T23:36:45;5.20;;;1.63;;
36547;SDS011;22551;52.206;4.856;2024-01-11T23:41:47;6.60;;;2.78;;
36547;SDS011;22551;52.206;4.856;2024-01-11T23:46:50;4.88;;;1.40;;
